Decorah, Iowa
Current Conditions -  °F | °C
As of 8:35 AM on Wednesday 22 Oct 2014 (Local Time) from KDEH Reporting Station
Clear Clear  
Wind Chill: 33°   Ceiling: Unl
Heat Index: 37°   Visibility: 9mi
Dew Point: 36°   Wind: 6mph
Humidity: 93%   Direction: 150°SSE
Pressure: 30.29"   Gusts: NA
Location:  43.3°N, 91.79°W
Report Text: KDEH 221335Z AUTO 15005KT 9SM CLR 03/02 A3029 RMK AO2
Loading
Personal Weather Stations






























Interactive Weather Map
Tropical Storm Tracking
New forecast layout! Learn more

10-Day Weather Forecast

Advertisements
Track Severe Weather on mobile